HUN74YE EDDF-EKCH
Flight info
| Callsign | HUN74YE |
|---|---|
| Flight time | 1h 3m |
| Altitude | 37000 |
| Route | MARUN8M/25C MARUN Y150 TOLGI DCT SAS DCT MAKEL N851 GESKA Z711 MONAK |
| Aircraft | A21N/M-SDE2E3FGHIJ1RWXY/LB1 |
Departure
| Time | 2026-05-04 17:08 |
|---|---|
| Airport | Frankfurt Main Airport (EDDF) |
Arrival
| Time | 2026-05-04 18:11 |
|---|---|
| Airport | Copenhagen Kastrup Airport (EKCH) |
| Time | Latitude | Longitude | Altitude | Speed | Heading |
|---|---|---|---|---|---|
| 2026-05-04 16:30 | 50.04744 | 8.58175 | 368 ft | 0 kts | 160° |
| 2026-05-04 16:56 | 50.04776 | 8.58157 | 369 ft | 4 kts | 160° |
| 2026-05-04 16:57 | 50.04794 | 8.58148 | 365 ft | 4 kts | 189° |
| 2026-05-04 16:57 | 50.04812 | 8.58185 | 365 ft | 2 kts | 249° |
| 2026-05-04 17:01 | 50.04797 | 8.58120 | 367 ft | 6 kts | 249° |
| 2026-05-04 17:01 | 50.04757 | 8.57981 | 367 ft | 9 kts | 223° |
| 2026-05-04 17:02 | 50.04617 | 8.58014 | 364 ft | 13 kts | 159° |
| 2026-05-04 17:02 | 50.04602 | 8.58261 | 372 ft | 10 kts | 70° |
| 2026-05-04 17:03 | 50.04629 | 8.58377 | 374 ft | 12 kts | 70° |
| 2026-05-04 17:03 | 50.04654 | 8.58499 | 374 ft | 11 kts | 91° |
| 2026-05-04 17:03 | 50.04643 | 8.58589 | 374 ft | 5 kts | 15° |
| 2026-05-04 17:04 | 50.04698 | 8.58680 | 374 ft | 8 kts | 85° |
| 2026-05-04 17:04 | 50.04637 | 8.58756 | 376 ft | 0 kts | 189° |
| 2026-05-04 17:05 | 50.04581 | 8.58717 | 376 ft | 14 kts | 216° |
| 2026-05-04 17:06 | 50.04489 | 8.58588 | 376 ft | 0 kts | 248° |
| 2026-05-04 17:07 | 50.04456 | 8.58464 | 375 ft | 41 kts | 249° |
| 2026-05-04 17:07 | 50.04266 | 8.57665 | 370 ft | 113 kts | 250° |
| 2026-05-04 17:08 | 50.03927 | 8.56242 | 362 ft | 165 kts | 249° |
| 2026-05-04 17:08 | 50.03072 | 8.52773 | 1440 ft | 172 kts | 250° |
| 2026-05-04 17:08 | 50.02642 | 8.50978 | 1948 ft | 182 kts | 251° |
| 2026-05-04 17:09 | 50.01972 | 8.49231 | 2429 ft | 199 kts | 227° |
| 2026-05-04 17:09 | 50.00725 | 8.48188 | 2997 ft | 212 kts | 196° |
| 2026-05-04 17:09 | 49.99260 | 8.47822 | 3778 ft | 213 kts | 189° |
| 2026-05-04 17:10 | 49.96324 | 8.47140 | 5412 ft | 212 kts | 191° |
| 2026-05-04 17:10 | 49.91921 | 8.44532 | 7320 ft | 240 kts | 223° |
| 2026-05-04 17:11 | 49.91037 | 8.42340 | 8080 ft | 246 kts | 251° |
| 2026-05-04 17:11 | 49.90928 | 8.39668 | 8865 ft | 255 kts | 276° |
| 2026-05-04 17:11 | 49.92959 | 8.35090 | 10133 ft | 287 kts | 328° |
| 2026-05-04 17:12 | 49.94862 | 8.33825 | 10448 ft | 308 kts | 336° |
| 2026-05-04 17:12 | 49.99127 | 8.31293 | 11009 ft | 347 kts | 335° |
| 2026-05-04 17:13 | 50.06502 | 8.28575 | 12494 ft | 383 kts | 7° |
| 2026-05-04 17:14 | 50.14126 | 8.32573 | 13222 ft | 386 kts | 19° |
| 2026-05-04 17:14 | 50.16673 | 8.33967 | 13883 ft | 390 kts | 19° |
| 2026-05-04 17:14 | 50.21865 | 8.36704 | 15199 ft | 398 kts | 18° |
| 2026-05-04 17:15 | 50.24498 | 8.38091 | 15807 ft | 401 kts | 18° |
| 2026-05-04 17:15 | 50.29840 | 8.40917 | 17026 ft | 408 kts | 18° |
| 2026-05-04 17:16 | 50.35265 | 8.43875 | 18205 ft | 419 kts | 18° |
| 2026-05-04 17:16 | 50.43604 | 8.48430 | 19773 ft | 428 kts | 18° |
| 2026-05-04 17:17 | 50.46425 | 8.49976 | 20283 ft | 430 kts | 18° |
| 2026-05-04 17:17 | 50.55091 | 8.54196 | 21716 ft | 440 kts | 15° |
| 2026-05-04 17:18 | 50.58023 | 8.55625 | 22174 ft | 443 kts | 15° |
| 2026-05-04 17:18 | 50.63946 | 8.58463 | 22981 ft | 448 kts | 15° |
| 2026-05-04 17:19 | 50.69940 | 8.61316 | 23634 ft | 452 kts | 15° |
| 2026-05-04 17:19 | 50.75987 | 8.64244 | 24203 ft | 457 kts | 15° |
| 2026-05-04 17:20 | 50.81812 | 8.68326 | 24906 ft | 465 kts | 34° |
| 2026-05-04 17:20 | 50.86323 | 8.75670 | 25525 ft | 470 kts | 53° |
| 2026-05-04 17:20 | 50.88282 | 8.79844 | 25876 ft | 473 kts | 54° |
| 2026-05-04 17:21 | 50.92220 | 8.88240 | 26522 ft | 479 kts | 53° |
| 2026-05-04 17:21 | 50.96248 | 8.96709 | 27188 ft | 484 kts | 53° |
| 2026-05-04 17:22 | 50.98278 | 9.00959 | 27530 ft | 486 kts | 53° |
| 2026-05-04 17:22 | 51.00327 | 9.05276 | 27846 ft | 490 kts | 53° |
| 2026-05-04 17:23 | 51.06510 | 9.18363 | 28680 ft | 496 kts | 53° |
| 2026-05-04 17:23 | 51.08685 | 9.22631 | 29034 ft | 497 kts | 46° |
| 2026-05-04 17:23 | 51.14297 | 9.28856 | 29748 ft | 492 kts | 20° |
| 2026-05-04 17:24 | 51.17551 | 9.30476 | 30114 ft | 488 kts | 10° |
| 2026-05-04 17:24 | 51.27445 | 9.33830 | 31181 ft | 483 kts | 8° |
| 2026-05-04 17:25 | 51.30731 | 9.34957 | 31497 ft | 482 kts | 9° |
| 2026-05-04 17:25 | 51.37281 | 9.37231 | 32131 ft | 483 kts | 8° |
| 2026-05-04 17:26 | 51.43821 | 9.39521 | 32930 ft | 480 kts | 8° |
| 2026-05-04 17:26 | 51.53582 | 9.42983 | 33787 ft | 478 kts | 8° |
| 2026-05-04 17:27 | 51.60067 | 9.45259 | 34255 ft | 477 kts | 8° |
| 2026-05-04 17:27 | 51.66543 | 9.47536 | 34689 ft | 476 kts | 8° |
| 2026-05-04 17:28 | 51.73011 | 9.49817 | 35065 ft | 475 kts | 8° |
| 2026-05-04 17:29 | 51.82674 | 9.53429 | 35583 ft | 478 kts | 15° |
| 2026-05-04 17:29 | 51.91680 | 9.60515 | 36085 ft | 480 kts | 25° |
| 2026-05-04 17:30 | 52.00571 | 9.67940 | 36553 ft | 479 kts | 24° |
| 2026-05-04 17:31 | 52.06456 | 9.72839 | 36812 ft | 478 kts | 24° |
| 2026-05-04 17:31 | 52.15366 | 9.80290 | 37014 ft | 478 kts | 24° |
| 2026-05-04 17:32 | 52.21232 | 9.85220 | 36971 ft | 478 kts | 24° |
| 2026-05-04 17:33 | 52.33081 | 9.95050 | 36956 ft | 477 kts | 24° |
| 2026-05-04 17:34 | 52.44936 | 10.04834 | 36941 ft | 477 kts | 24° |
| 2026-05-04 17:35 | 52.59738 | 10.17185 | 36954 ft | 476 kts | 23° |
| 2026-05-04 17:36 | 52.65646 | 10.22161 | 36936 ft | 478 kts | 23° |
| 2026-05-04 17:36 | 52.71564 | 10.27143 | 36936 ft | 477 kts | 23° |
| 2026-05-04 17:37 | 52.77478 | 10.32132 | 36945 ft | 477 kts | 24° |
| 2026-05-04 17:37 | 52.83382 | 10.37124 | 36957 ft | 475 kts | 23° |
| 2026-05-04 17:38 | 52.89278 | 10.42123 | 36954 ft | 476 kts | 23° |
| 2026-05-04 17:38 | 52.95170 | 10.47145 | 36954 ft | 477 kts | 24° |
| 2026-05-04 17:39 | 53.04008 | 10.54702 | 36956 ft | 477 kts | 24° |
| 2026-05-04 17:39 | 53.09911 | 10.59751 | 36956 ft | 476 kts | 23° |
| 2026-05-04 17:40 | 53.15797 | 10.64790 | 36960 ft | 476 kts | 24° |
| 2026-05-04 17:40 | 53.21693 | 10.69868 | 36946 ft | 476 kts | 24° |
| 2026-05-04 17:41 | 53.26576 | 10.74091 | 36973 ft | 475 kts | 24° |
| 2026-05-04 17:41 | 53.32454 | 10.79225 | 36963 ft | 474 kts | 24° |
| 2026-05-04 17:42 | 53.38265 | 10.84301 | 36960 ft | 474 kts | 24° |
| 2026-05-04 17:42 | 53.44122 | 10.89383 | 36945 ft | 475 kts | 23° |
| 2026-05-04 17:43 | 53.49972 | 10.94496 | 36640 ft | 472 kts | 23° |
| 2026-05-04 17:43 | 53.52871 | 10.97050 | 36337 ft | 470 kts | 23° |
| 2026-05-04 17:43 | 53.55767 | 10.99607 | 36071 ft | 470 kts | 23° |
| 2026-05-04 17:44 | 53.58665 | 11.02165 | 35815 ft | 472 kts | 23° |
| 2026-05-04 17:44 | 53.61575 | 11.04726 | 35568 ft | 472 kts | 23° |
| 2026-05-04 17:44 | 53.64486 | 11.07302 | 35317 ft | 473 kts | 23° |
| 2026-05-04 17:44 | 53.67403 | 11.09911 | 35062 ft | 474 kts | 23° |
| 2026-05-04 17:45 | 53.70324 | 11.12498 | 34837 ft | 476 kts | 22° |
| 2026-05-04 17:45 | 53.73262 | 11.15074 | 34614 ft | 475 kts | 22° |
| 2026-05-04 17:45 | 53.76186 | 11.17661 | 34370 ft | 474 kts | 22° |
| 2026-05-04 17:45 | 53.79102 | 11.20244 | 34136 ft | 473 kts | 22° |
| 2026-05-04 17:46 | 53.82020 | 11.22848 | 33892 ft | 475 kts | 22° |
| 2026-05-04 17:46 | 53.84944 | 11.25465 | 33610 ft | 476 kts | 22° |
| 2026-05-04 17:46 | 53.87874 | 11.28084 | 33337 ft | 478 kts | 22° |
| 2026-05-04 17:46 | 53.90818 | 11.30723 | 33079 ft | 479 kts | 22° |
| 2026-05-04 17:47 | 53.93769 | 11.33374 | 32803 ft | 481 kts | 22° |
| 2026-05-04 17:47 | 53.96733 | 11.36036 | 32564 ft | 483 kts | 22° |
| 2026-05-04 17:47 | 53.99706 | 11.38717 | 32304 ft | 485 kts | 22° |
| 2026-05-04 17:47 | 54.02669 | 11.41483 | 32042 ft | 488 kts | 25° |
| 2026-05-04 17:48 | 54.05605 | 11.44425 | 31783 ft | 490 kts | 25° |
| 2026-05-04 17:48 | 54.08538 | 11.47378 | 31530 ft | 492 kts | 25° |
| 2026-05-04 17:48 | 54.11492 | 11.50336 | 31284 ft | 493 kts | 25° |
| 2026-05-04 17:48 | 54.14472 | 11.53294 | 31026 ft | 495 kts | 25° |
| 2026-05-04 17:49 | 54.17451 | 11.56265 | 30770 ft | 497 kts | 25° |
| 2026-05-04 17:49 | 54.20430 | 11.59256 | 30548 ft | 496 kts | 25° |
| 2026-05-04 17:49 | 54.23400 | 11.62252 | 30298 ft | 497 kts | 25° |
| 2026-05-04 17:49 | 54.26376 | 11.65254 | 30059 ft | 496 kts | 24° |
| 2026-05-04 17:50 | 54.29349 | 11.68230 | 29768 ft | 494 kts | 24° |
| 2026-05-04 17:50 | 54.32306 | 11.71192 | 29190 ft | 490 kts | 24° |
| 2026-05-04 17:50 | 54.35191 | 11.74110 | 28488 ft | 487 kts | 25° |
| 2026-05-04 17:50 | 54.38111 | 11.77059 | 27780 ft | 484 kts | 24° |
| 2026-05-04 17:51 | 54.40994 | 11.79970 | 27093 ft | 481 kts | 24° |
| 2026-05-04 17:51 | 54.43876 | 11.82862 | 26424 ft | 478 kts | 24° |
| 2026-05-04 17:51 | 54.46739 | 11.85753 | 25719 ft | 476 kts | 24° |
| 2026-05-04 17:51 | 54.49575 | 11.88650 | 25054 ft | 473 kts | 25° |
| 2026-05-04 17:52 | 54.52389 | 11.91525 | 24377 ft | 468 kts | 24° |
| 2026-05-04 17:52 | 54.55191 | 11.94339 | 23696 ft | 464 kts | 24° |
| 2026-05-04 17:52 | 54.57957 | 11.97130 | 22944 ft | 458 kts | 24° |
| 2026-05-04 17:52 | 54.60692 | 11.99905 | 22210 ft | 452 kts | 25° |
| 2026-05-04 17:53 | 54.63374 | 12.02668 | 21519 ft | 446 kts | 26° |
| 2026-05-04 17:53 | 54.66015 | 12.05411 | 20866 ft | 439 kts | 26° |
| 2026-05-04 17:53 | 54.68615 | 12.08106 | 20261 ft | 433 kts | 27° |
| 2026-05-04 17:53 | 54.71185 | 12.10715 | 19687 ft | 425 kts | 26° |
| 2026-05-04 17:54 | 54.73716 | 12.13267 | 19129 ft | 417 kts | 26° |
| 2026-05-04 17:54 | 54.76199 | 12.15798 | 18583 ft | 411 kts | 27° |
| 2026-05-04 17:54 | 54.78639 | 12.18303 | 18055 ft | 405 kts | 27° |
| 2026-05-04 17:54 | 54.81031 | 12.20777 | 17514 ft | 396 kts | 27° |
| 2026-05-04 17:55 | 54.83374 | 12.23203 | 16978 ft | 389 kts | 27° |
| 2026-05-04 17:55 | 54.85690 | 12.25602 | 16468 ft | 386 kts | 27° |
| 2026-05-04 17:55 | 54.87988 | 12.27984 | 15986 ft | 384 kts | 27° |
| 2026-05-04 17:55 | 54.90280 | 12.30364 | 15525 ft | 383 kts | 27° |
| 2026-05-04 17:56 | 54.92554 | 12.32733 | 15052 ft | 381 kts | 27° |
| 2026-05-04 17:56 | 54.94827 | 12.35104 | 14564 ft | 380 kts | 27° |
| 2026-05-04 17:56 | 54.97065 | 12.37432 | 14090 ft | 380 kts | 27° |
| 2026-05-04 17:56 | 54.99361 | 12.39830 | 13578 ft | 380 kts | 27° |
| 2026-05-04 17:57 | 55.01623 | 12.42203 | 13058 ft | 378 kts | 27° |
| 2026-05-04 17:57 | 55.03870 | 12.44557 | 12586 ft | 375 kts | 27° |
| 2026-05-04 17:57 | 55.06068 | 12.46858 | 12106 ft | 373 kts | 27° |
| 2026-05-04 17:57 | 55.08284 | 12.49185 | 11613 ft | 370 kts | 27° |
| 2026-05-04 17:58 | 55.10486 | 12.51502 | 11136 ft | 368 kts | 27° |
| 2026-05-04 17:58 | 55.12645 | 12.53781 | 10800 ft | 356 kts | 27° |
| 2026-05-04 17:58 | 55.14716 | 12.55972 | 10598 ft | 340 kts | 27° |
| 2026-05-04 17:58 | 55.16696 | 12.58071 | 10413 ft | 325 kts | 27° |
| 2026-05-04 17:59 | 55.18585 | 12.60074 | 10239 ft | 310 kts | 27° |
| 2026-05-04 17:59 | 55.20426 | 12.62022 | 9928 ft | 302 kts | 27° |
| 2026-05-04 17:59 | 55.24050 | 12.65472 | 8955 ft | 293 kts | 15° |
| 2026-05-04 18:00 | 55.25951 | 12.66580 | 8651 ft | 286 kts | 13° |
| 2026-05-04 18:00 | 55.27825 | 12.67623 | 8406 ft | 280 kts | 13° |
| 2026-05-04 18:00 | 55.29664 | 12.68649 | 8187 ft | 273 kts | 13° |
| 2026-05-04 18:00 | 55.31450 | 12.69657 | 7965 ft | 267 kts | 13° |
| 2026-05-04 18:01 | 55.33202 | 12.70655 | 7756 ft | 263 kts | 13° |
| 2026-05-04 18:01 | 55.34944 | 12.71646 | 7551 ft | 263 kts | 13° |
| 2026-05-04 18:01 | 55.36681 | 12.72635 | 7345 ft | 262 kts | 13° |
| 2026-05-04 18:02 | 55.40139 | 12.74616 | 6913 ft | 260 kts | 13° |
| 2026-05-04 18:02 | 55.41855 | 12.75596 | 6693 ft | 259 kts | 14° |
| 2026-05-04 18:02 | 55.43567 | 12.76578 | 6480 ft | 258 kts | 13° |
| 2026-05-04 18:02 | 55.45271 | 12.77550 | 6270 ft | 256 kts | 13° |
| 2026-05-04 18:03 | 55.46966 | 12.78518 | 6050 ft | 256 kts | 14° |
| 2026-05-04 18:03 | 55.48653 | 12.79492 | 5833 ft | 255 kts | 14° |
| 2026-05-04 18:03 | 55.50335 | 12.80462 | 5616 ft | 254 kts | 14° |
| 2026-05-04 18:03 | 55.52005 | 12.81422 | 5401 ft | 252 kts | 14° |
| 2026-05-04 18:04 | 55.53672 | 12.82383 | 5187 ft | 251 kts | 14° |
| 2026-05-04 18:04 | 55.55320 | 12.83339 | 4984 ft | 245 kts | 15° |
| 2026-05-04 18:04 | 55.58413 | 12.85498 | 4516 ft | 235 kts | 19° |
| 2026-05-04 18:05 | 55.59903 | 12.86642 | 4168 ft | 232 kts | 20° |
| 2026-05-04 18:05 | 55.61394 | 12.87788 | 3984 ft | 234 kts | 20° |
| 2026-05-04 18:05 | 55.62882 | 12.88928 | 3986 ft | 234 kts | 20° |
| 2026-05-04 18:05 | 55.64363 | 12.90085 | 3994 ft | 232 kts | 20° |
| 2026-05-04 18:06 | 55.67331 | 12.91185 | 3983 ft | 205 kts | 355° |
| 2026-05-04 18:06 | 55.68764 | 12.91168 | 3989 ft | 206 kts | 355° |
| 2026-05-04 18:06 | 55.70180 | 12.91144 | 3884 ft | 201 kts | 355° |
| 2026-05-04 18:07 | 55.71568 | 12.91111 | 3492 ft | 199 kts | 354° |
| 2026-05-04 18:07 | 55.72860 | 12.90474 | 3033 ft | 193 kts | 323° |
| 2026-05-04 18:07 | 55.73680 | 12.88675 | 2574 ft | 190 kts | 289° |
| 2026-05-04 18:07 | 55.73757 | 12.86359 | 2162 ft | 192 kts | 256° |
| 2026-05-04 18:08 | 55.73082 | 12.84311 | 2000 ft | 197 kts | 232° |
| 2026-05-04 18:08 | 55.72119 | 12.82549 | 1986 ft | 200 kts | 225° |
| 2026-05-04 18:08 | 55.71075 | 12.80945 | 1997 ft | 198 kts | 224° |
| 2026-05-04 18:08 | 55.70016 | 12.79349 | 1912 ft | 200 kts | 224° |
| 2026-05-04 18:09 | 55.68003 | 12.76065 | 1349 ft | 194 kts | 229° |
| 2026-05-04 18:09 | 55.66395 | 12.73013 | 1128 ft | 155 kts | 229° |
| 2026-05-04 18:10 | 55.65620 | 12.71736 | 837 ft | 150 kts | 226° |
| 2026-05-04 18:10 | 55.64856 | 12.70501 | 625 ft | 149 kts | 227° |
| 2026-05-04 18:10 | 55.64103 | 12.69260 | 410 ft | 148 kts | 227° |
| 2026-05-04 18:10 | 55.63346 | 12.68028 | 243 ft | 149 kts | 225° |
| 2026-05-04 18:11 | 55.62570 | 12.66815 | 86 ft | 149 kts | 225° |
| 2026-05-04 18:11 | 55.61828 | 12.65654 | 24 ft | 129 kts | 218° |
| 2026-05-04 18:11 | 55.61391 | 12.64965 | 24 ft | 45 kts | 225° |
| 2026-05-04 18:11 | 55.61244 | 12.64618 | 23 ft | 31 kts | 251° |
| 2026-05-04 18:12 | 55.61195 | 12.64324 | 22 ft | 21 kts | 255° |
| 2026-05-04 18:12 | 55.61208 | 12.64124 | 22 ft | 18 kts | 323° |
| 2026-05-04 18:12 | 55.61319 | 12.64158 | 23 ft | 19 kts | 36° |
| 2026-05-04 18:12 | 55.61437 | 12.64292 | 25 ft | 21 kts | 32° |
| 2026-05-04 18:13 | 55.61547 | 12.64418 | 23 ft | 15 kts | 33° |
| 2026-05-04 18:13 | 55.61641 | 12.64528 | 23 ft | 17 kts | 33° |
| 2026-05-04 18:13 | 55.61821 | 12.64533 | 22 ft | 5 kts | 349° |
| 2026-05-04 18:14 | 55.61865 | 12.64519 | 24 ft | 7 kts | 349° |
| 2026-05-04 18:14 | 55.61886 | 12.64512 | 22 ft | 0 kts | 349° |
| 2026-05-04 18:14 | 55.61894 | 12.64509 | 22 ft | 4 kts | 349° |
| 2026-05-04 18:15 | 55.62016 | 12.64469 | 22 ft | 11 kts | 349° |
| 2026-05-04 18:15 | 55.62171 | 12.64419 | 22 ft | 12 kts | 350° |
| 2026-05-04 18:15 | 55.62246 | 12.64362 | 21 ft | 13 kts | 312° |
| 2026-05-04 18:16 | 55.62297 | 12.64230 | 20 ft | 13 kts | 303° |
| 2026-05-04 18:16 | 55.62350 | 12.64087 | 20 ft | 14 kts | 303° |
| 2026-05-04 18:16 | 55.62408 | 12.63935 | 23 ft | 15 kts | 305° |
| 2026-05-04 18:17 | 55.62534 | 12.63600 | 23 ft | 17 kts | 304° |
| 2026-05-04 18:17 | 55.62616 | 12.63504 | 22 ft | 11 kts | 348° |
| 2026-05-04 18:17 | 55.62735 | 12.63300 | 24 ft | 13 kts | 301° |
| 2026-05-04 18:18 | 55.62774 | 12.63233 | 22 ft | 7 kts | 347° |
| 2026-05-04 18:18 | 55.62807 | 12.63234 | 22 ft | 1 kts | 4° |
| 2026-05-04 18:18 | 55.62819 | 12.63236 | 22 ft | 2 kts | 5° |
| 2026-05-04 18:18 | 55.62822 | 12.63236 | 22 ft | 0 kts | 5° |